createdAt,value
2023-08-10T00:00:16.162Z,4.35
2023-08-10T00:02:45.676Z,4.03
2023-08-10T00:05:13.808Z,4.60
2023-08-10T00:07:41.774Z,4.57
2023-08-10T00:10:09.925Z,4.43
2023-08-10T00:12:39.259Z,4.32
2023-08-10T00:15:08.360Z,4.75
2023-08-10T00:17:36.553Z,4.70
2023-08-10T00:20:08.897Z,3.88
2023-08-10T00:22:37.039Z,4.20
2023-08-10T00:25:06.545Z,4.13
2023-08-10T00:27:37.050Z,4.30
2023-08-10T00:30:05.743Z,4.53
2023-08-10T00:32:34.295Z,4.80
2023-08-10T00:35:02.512Z,4.80
2023-08-10T00:37:31.132Z,4.90
2023-08-10T00:39:58.890Z,4.70
2023-08-10T00:42:26.529Z,4.95
2023-08-10T00:44:54.302Z,4.68
2023-08-10T00:47:22.759Z,4.80
2023-08-10T00:49:50.747Z,4.70
2023-08-10T00:52:18.683Z,4.60
2023-08-10T00:54:46.823Z,4.72
2023-08-10T00:57:14.556Z,4.70
2023-08-10T00:59:43.317Z,4.77
2023-08-10T01:02:11.982Z,5.18
2023-08-10T01:04:40.722Z,4.80
2023-08-10T01:07:13.840Z,5.00
2023-08-10T01:10:07.373Z,4.47
2023-08-10T01:12:42.993Z,5.23
2023-08-10T01:15:51.013Z,5.00
2023-08-10T01:18:24.346Z,5.32
2023-08-10T01:20:53.530Z,5.25
2023-08-10T01:23:33.310Z,5.35
2023-08-10T01:26:01.622Z,5.00
2023-08-10T01:28:33.098Z,5.47
2023-08-10T01:31:02.128Z,4.65
2023-08-10T01:33:31.292Z,4.82
2023-08-10T01:35:58.959Z,4.95
2023-08-10T01:38:26.842Z,5.43
2023-08-10T01:40:55.724Z,5.32
2023-08-10T01:43:23.576Z,4.28
2023-08-10T01:45:55.235Z,5.22
2023-08-10T01:48:31.142Z,5.55
2023-08-10T01:51:02.166Z,5.17
2023-08-10T01:53:38.130Z,5.15
2023-08-10T01:56:06.307Z,5.35
2023-08-10T01:58:34.409Z,5.45
2023-08-10T02:01:02.891Z,5.30
2023-08-10T02:03:30.946Z,5.10
2023-08-10T02:05:58.967Z,5.55
2023-08-10T02:08:26.939Z,6.13
2023-08-10T02:10:55.083Z,6.55
2023-08-10T02:13:23.462Z,6.40
2023-08-10T02:15:52.035Z,6.90
2023-08-10T02:18:20.242Z,5.65
2023-08-10T02:20:48.394Z,4.30
2023-08-10T02:23:16.357Z,3.53
2023-08-10T02:25:44.243Z,5.68
2023-08-10T02:28:12.185Z,4.83
2023-08-10T02:30:40.143Z,5.25
2023-08-10T02:33:08.083Z,5.20
2023-08-10T02:35:35.960Z,5.28
2023-08-10T02:38:03.941Z,5.78
2023-08-10T02:40:31.889Z,5.03
2023-08-10T02:42:59.704Z,5.18
2023-08-10T02:45:28.419Z,4.75
2023-08-10T02:47:56.483Z,6.00
2023-08-10T02:50:24.401Z,4.60
2023-08-10T02:52:52.513Z,5.63
2023-08-10T02:55:20.340Z,6.13
2023-08-10T02:57:48.204Z,6.63
2023-08-10T03:00:16.357Z,6.53
2023-08-10T03:02:44.682Z,4.53
2023-08-10T03:05:12.743Z,5.27
2023-08-10T03:07:40.639Z,5.43
2023-08-10T03:10:10.903Z,8.43
2023-08-10T03:12:39.541Z,6.85
2023-08-10T03:15:10.834Z,6.57
2023-08-10T03:17:40.735Z,7.40
2023-08-10T03:20:18.720Z,7.72
2023-08-10T03:22:46.998Z,7.80
2023-08-10T03:25:16.111Z,8.80
2023-08-10T03:27:44.173Z,4.72
2023-08-10T03:30:12.350Z,9.53
2023-08-10T03:32:41.314Z,9.95
2023-08-10T03:35:09.911Z,9.77
2023-08-10T03:37:38.165Z,10.35
2023-08-10T03:40:07.834Z,9.70
2023-08-10T03:42:36.002Z,9.20
2023-08-10T03:45:04.180Z,8.98
2023-08-10T03:47:33.257Z,5.07
2023-08-10T03:50:01.155Z,4.55
2023-08-10T03:52:29.098Z,2.90
2023-08-10T03:54:57.061Z,4.33
2023-08-10T03:57:25.120Z,6.10
2023-08-10T03:59:52.991Z,7.95
2023-08-10T04:02:23.989Z,12.27
2023-08-10T04:04:51.933Z,14.95
2023-08-10T04:07:19.809Z,10.73
2023-08-10T04:09:50.188Z,14.48
2023-08-10T04:12:18.949Z,18.33
2023-08-10T04:14:46.784Z,12.15
2023-08-10T04:17:14.619Z,16.13
2023-08-10T04:19:42.480Z,12.03
2023-08-10T04:22:10.373Z,13.60
2023-08-10T04:24:38.241Z,11.25
2023-08-10T04:27:07.182Z,10.38
2023-08-10T04:29:41.066Z,17.92
2023-08-10T04:32:09.216Z,13.47
2023-08-10T04:34:47.316Z,11.07
2023-08-10T04:37:19.096Z,13.75
2023-08-10T04:39:50.372Z,41.33
2023-08-10T04:42:18.271Z,25.20
2023-08-10T04:44:46.140Z,14.33
2023-08-10T04:47:14.263Z,8.85
2023-08-10T04:49:42.265Z,8.57
2023-08-10T04:52:10.627Z,9.95
2023-08-10T04:54:39.293Z,6.35
2023-08-10T04:57:07.266Z,9.43
2023-08-10T04:59:37.534Z,3.97
2023-08-10T05:02:06.541Z,4.18
2023-08-10T05:04:34.662Z,3.30
2023-08-10T05:07:02.747Z,6.25
2023-08-10T05:09:32.481Z,6.17
2023-08-10T05:12:02.550Z,6.45
2023-08-10T05:14:30.560Z,6.18
2023-08-10T05:16:58.494Z,4.05
2023-08-10T05:19:26.705Z,6.10
2023-08-10T05:21:55.838Z,7.20
2023-08-10T05:24:23.780Z,3.28
2023-08-10T05:26:51.703Z,4.53
2023-08-10T05:29:22.667Z,8.30
2023-08-10T05:31:51.036Z,7.05
2023-08-10T05:34:18.970Z,5.20
2023-08-10T05:36:46.846Z,3.25
2023-08-10T05:39:18.336Z,5.43
2023-08-10T05:41:46.063Z,4.15
2023-08-10T05:44:14.689Z,3.97
2023-08-10T05:46:43.585Z,6.43
2023-08-10T05:49:11.290Z,3.45
2023-08-10T05:51:39.061Z,5.90
2023-08-10T05:54:07.851Z,7.07
2023-08-10T05:56:38.520Z,6.95
2023-08-10T05:59:06.145Z,8.20
2023-08-10T06:01:33.952Z,7.38
2023-08-10T06:04:04.359Z,4.85
2023-08-10T06:06:33.369Z,4.85
2023-08-10T06:09:01.010Z,5.25
2023-08-10T06:11:42.132Z,3.97
2023-08-10T06:14:16.552Z,3.80
2023-08-10T06:16:44.248Z,3.50
2023-08-10T06:19:12.199Z,2.20
2023-08-10T06:21:40.227Z,1.85
2023-08-10T06:24:10.614Z,5.93
2023-08-10T06:26:40.340Z,3.38
2023-08-10T06:29:08.139Z,3.72
2023-08-10T06:31:36.743Z,3.28
2023-08-10T06:34:04.675Z,3.08
2023-08-10T06:36:32.745Z,2.17
2023-08-10T06:39:00.636Z,2.60
2023-08-10T06:41:29.152Z,2.20
2023-08-10T06:43:56.814Z,2.17
2023-08-10T06:46:24.894Z,2.15
2023-08-10T06:48:52.744Z,1.50
2023-08-10T06:51:20.668Z,1.40
2023-08-10T06:53:48.403Z,2.13
2023-08-10T06:56:17.383Z,2.13
2023-08-10T06:59:19.897Z,2.33
2023-08-10T07:01:36.077Z,3.07
2023-08-10T07:04:03.913Z,2.30
2023-08-10T07:06:32.839Z,1.98
2023-08-10T07:09:10.971Z,2.60
2023-08-10T07:11:39.896Z,1.92
2023-08-10T07:14:07.727Z,3.43
2023-08-10T07:16:35.450Z,1.50
2023-08-10T07:19:03.389Z,1.77
2023-08-10T07:21:31.051Z,3.33
2023-08-10T07:23:59.105Z,2.40
2023-08-10T07:26:26.868Z,1.83
2023-08-10T07:28:54.501Z,5.53
2023-08-10T07:31:22.789Z,4.53
2023-08-10T07:33:51.580Z,3.17
2023-08-10T07:36:19.453Z,2.35
2023-08-10T07:38:47.183Z,1.67
2023-08-10T07:41:15.185Z,2.50
2023-08-10T07:43:46.053Z,1.80
2023-08-10T07:46:13.831Z,2.08
2023-08-10T07:48:42.261Z,2.47
2023-08-10T07:51:10.295Z,2.53
2023-08-10T07:53:38.046Z,2.63
2023-08-10T07:56:06.279Z,2.15
2023-08-10T07:58:36.706Z,7.43
2023-08-10T08:01:09.133Z,3.13
2023-08-10T08:03:40.777Z,8.53
2023-08-10T08:06:09.811Z,27.73
2023-08-10T08:08:37.560Z,18.00
2023-08-10T08:11:05.302Z,28.98
2023-08-10T08:13:32.991Z,7.50
2023-08-10T08:16:01.104Z,13.37
2023-08-10T08:18:58.884Z,15.50
2023-08-10T08:21:29.379Z,13.70
2023-08-10T08:23:57.771Z,9.18
2023-08-10T08:26:26.066Z,8.75
2023-08-10T08:28:57.150Z,7.27
2023-08-10T08:31:31.219Z,3.50
2023-08-10T08:33:59.304Z,6.03
2023-08-10T08:36:28.259Z,5.00
2023-08-10T08:38:57.835Z,5.20
2023-08-10T08:41:28.654Z,5.20
2023-08-10T08:43:57.015Z,3.15
2023-08-10T08:46:29.557Z,5.97
2023-08-10T08:48:58.019Z,9.75
2023-08-10T08:51:26.082Z,10.65
2023-08-10T08:53:54.389Z,6.27
2023-08-10T08:56:22.232Z,3.22
2023-08-10T08:58:50.958Z,4.75
2023-08-10T09:01:20.465Z,11.05
2023-08-10T09:03:49.659Z,4.75
2023-08-10T09:06:18.105Z,7.20
2023-08-10T09:08:48.200Z,9.45
2023-08-10T09:11:16.114Z,4.57
2023-08-10T09:13:43.834Z,7.28
2023-08-10T09:16:14.654Z,6.63
2023-08-10T09:18:46.045Z,3.37
2023-08-10T09:21:15.944Z,3.05
2023-08-10T09:23:46.293Z,5.38
2023-08-10T09:26:21.620Z,5.15
2023-08-10T09:28:50.701Z,6.03
2023-08-10T09:31:29.341Z,7.03
2023-08-10T09:34:00.754Z,6.00
2023-08-10T09:36:31.863Z,7.10
2023-08-10T09:39:02.593Z,4.43
2023-08-10T09:41:31.060Z,3.08
2023-08-10T09:44:07.401Z,3.60
2023-08-10T09:46:35.652Z,4.75
2023-08-10T09:49:04.841Z,4.82
2023-08-10T09:51:39.530Z,3.30
2023-08-10T09:54:07.885Z,2.60
2023-08-10T09:56:35.723Z,2.43
2023-08-10T09:59:04.050Z,3.05
2023-08-10T10:01:31.966Z,2.40
2023-08-10T10:03:59.990Z,2.80
2023-08-10T10:06:27.942Z,3.40
2023-08-10T10:08:59.610Z,6.97
2023-08-10T10:11:30.484Z,5.65
2023-08-10T10:13:58.964Z,9.02
2023-08-10T10:16:29.170Z,7.88
2023-08-10T10:18:57.031Z,4.40
2023-08-10T10:21:25.777Z,3.50
2023-08-10T10:23:56.673Z,3.88
2023-08-10T10:26:24.378Z,3.30
2023-08-10T10:29:13.635Z,2.80
2023-08-10T10:31:41.977Z,2.78
2023-08-10T10:34:19.991Z,2.50
2023-08-10T10:36:51.622Z,4.10
2023-08-10T10:39:22.304Z,3.60
2023-08-10T10:41:52.555Z,3.28
2023-08-10T10:44:20.956Z,4.80
2023-08-10T10:46:48.712Z,4.40
2023-08-10T10:49:21.635Z,4.45
2023-08-10T10:51:53.885Z,5.10
2023-08-10T10:54:22.827Z,3.55
2023-08-10T10:56:51.278Z,3.35
2023-08-10T10:59:21.472Z,3.80
2023-08-10T11:01:49.930Z,3.60
2023-08-10T11:04:18.072Z,3.67
2023-08-10T11:06:49.239Z,5.85
2023-08-10T11:09:16.969Z,8.90
2023-08-10T11:11:50.520Z,10.53
2023-08-10T11:14:18.365Z,11.57
2023-08-10T11:16:48.183Z,7.55
2023-08-10T11:19:15.900Z,5.25
2023-08-10T11:21:45.627Z,4.00
2023-08-10T11:24:14.287Z,2.53
2023-08-10T11:26:42.884Z,2.60
2023-08-10T11:29:11.592Z,3.13
2023-08-10T11:31:46.871Z,3.05
2023-08-10T11:34:24.386Z,4.18
2023-08-10T11:36:54.392Z,4.57
2023-08-10T11:39:26.412Z,4.45
2023-08-10T11:41:55.160Z,5.00
2023-08-10T11:44:37.998Z,4.70
2023-08-10T11:47:14.172Z,7.55
2023-08-10T11:49:42.338Z,7.90
2023-08-10T11:52:19.210Z,6.95
2023-08-10T11:55:18.672Z,6.15
2023-08-10T11:57:59.665Z,8.00
2023-08-10T12:00:31.910Z,5.97
2023-08-10T12:03:16.177Z,4.43
2023-08-10T12:05:54.342Z,3.10
2023-08-10T12:08:36.220Z,2.80
2023-08-10T12:11:06.337Z,3.13
2023-08-10T12:13:47.492Z,3.88
2023-08-10T12:16:18.326Z,5.40
2023-08-10T12:18:47.038Z,6.90
2023-08-10T12:21:15.218Z,5.20
2023-08-10T12:23:43.953Z,5.22
2023-08-10T12:26:14.804Z,5.30
2023-08-10T12:28:45.229Z,4.73
2023-08-10T12:31:13.349Z,5.57
2023-08-10T12:33:42.487Z,5.80
2023-08-10T12:36:10.741Z,5.18
2023-08-10T12:38:40.443Z,3.47
2023-08-10T12:41:10.149Z,3.13
2023-08-10T12:43:38.147Z,3.08
2023-08-10T12:46:07.965Z,3.08
2023-08-10T12:48:35.926Z,4.68
2023-08-10T12:51:04.043Z,4.47
2023-08-10T12:53:31.997Z,3.50
2023-08-10T12:56:03.711Z,3.63
2023-08-10T12:58:31.867Z,3.90
2023-08-10T13:00:59.751Z,3.50
2023-08-10T13:03:29.278Z,4.25
2023-08-10T13:05:57.188Z,4.40
2023-08-10T13:08:25.294Z,5.60
2023-08-10T13:10:53.480Z,4.97
2023-08-10T13:13:21.497Z,4.15
2023-08-10T13:15:49.481Z,4.25
2023-08-10T13:18:17.538Z,3.90
2023-08-10T13:20:45.583Z,3.20
2023-08-10T13:23:13.572Z,3.20
2023-08-10T13:25:41.697Z,4.35
2023-08-10T13:28:09.772Z,3.22
2023-08-10T13:30:39.951Z,2.90
2023-08-10T13:33:07.964Z,3.42
2023-08-10T13:35:35.899Z,3.55
2023-08-10T13:38:04.240Z,3.70
2023-08-10T13:40:32.234Z,5.15
2023-08-10T13:43:00.211Z,6.97
2023-08-10T13:45:28.384Z,5.65
2023-08-10T13:47:56.383Z,4.25
2023-08-10T13:50:24.463Z,3.45
2023-08-10T13:52:52.300Z,3.17
2023-08-10T13:55:20.564Z,4.07
2023-08-10T13:57:48.479Z,3.20
2023-08-10T14:00:16.467Z,4.20
2023-08-10T14:02:44.511Z,3.45
2023-08-10T14:05:14.023Z,4.38
2023-08-10T14:07:42.098Z,3.77
2023-08-10T14:10:12.483Z,4.22
2023-08-10T14:12:40.507Z,3.38
2023-08-10T14:15:08.949Z,4.00
2023-08-10T14:17:37.110Z,5.63
2023-08-10T14:20:05.911Z,4.67
2023-08-10T14:22:34.049Z,10.13
2023-08-10T14:25:03.205Z,6.63
2023-08-10T14:27:32.167Z,5.70
2023-08-10T14:30:00.225Z,7.05
2023-08-10T14:32:28.326Z,8.10
2023-08-10T14:34:56.442Z,5.43
2023-08-10T14:37:27.449Z,4.18
2023-08-10T14:39:55.738Z,3.17
2023-08-10T14:42:23.573Z,3.42
2023-08-10T14:45:00.030Z,3.27
2023-08-10T14:47:27.899Z,2.90
2023-08-10T14:49:55.687Z,3.83
2023-08-10T14:52:23.400Z,3.95
2023-08-10T14:54:51.150Z,4.38
2023-08-10T14:57:19.040Z,9.87
2023-08-10T14:59:46.797Z,4.68
2023-08-10T15:02:14.557Z,8.27
2023-08-10T15:04:45.274Z,2.83
2023-08-10T15:07:13.282Z,3.17
2023-08-10T15:09:40.910Z,3.00
2023-08-10T15:12:08.766Z,3.10
2023-08-10T15:14:36.469Z,3.53
2023-08-10T15:17:04.480Z,3.58
2023-08-10T15:19:32.274Z,4.10
2023-08-10T15:22:02.496Z,3.80
2023-08-10T15:24:32.228Z,3.83
2023-08-10T15:27:07.948Z,2.78
2023-08-10T15:29:35.622Z,2.78
2023-08-10T15:32:03.466Z,2.85
2023-08-10T15:34:31.278Z,2.50
2023-08-10T15:37:00.723Z,4.20
2023-08-10T15:39:28.443Z,3.00
2023-08-10T15:41:57.579Z,2.70
2023-08-10T15:44:28.062Z,3.45
2023-08-10T15:46:56.110Z,3.63
2023-08-10T15:49:23.978Z,2.83
2023-08-10T15:51:52.819Z,2.90
2023-08-10T15:54:20.706Z,3.05
2023-08-10T15:56:48.444Z,3.10
2023-08-10T15:59:16.092Z,2.87
2023-08-10T16:01:43.881Z,2.72
2023-08-10T16:04:11.663Z,2.80
2023-08-10T16:06:39.970Z,2.55
2023-08-10T16:09:08.109Z,2.70
2023-08-10T16:11:36.012Z,2.93
2023-08-10T16:14:03.771Z,2.95
2023-08-10T16:16:31.633Z,2.83
2023-08-10T16:18:59.390Z,3.60
2023-08-10T16:21:27.131Z,3.30
2023-08-10T16:23:54.964Z,3.90
2023-08-10T16:26:22.707Z,2.50
2023-08-10T16:28:56.408Z,2.80
2023-08-10T16:31:27.489Z,2.88
2023-08-10T16:33:55.252Z,2.88
2023-08-10T16:36:22.983Z,2.90
2023-08-10T16:38:54.043Z,2.88
2023-08-10T16:41:25.944Z,3.00
2023-08-10T16:43:56.134Z,2.95
2023-08-10T16:46:27.279Z,3.83
2023-08-10T16:48:55.395Z,3.10
2023-08-10T16:51:23.569Z,3.40
2023-08-10T16:53:51.509Z,3.78
2023-08-10T16:56:21.099Z,3.97
2023-08-10T16:58:50.310Z,3.38
2023-08-10T17:01:18.832Z,3.50
2023-08-10T17:03:46.838Z,3.25
2023-08-10T17:06:14.957Z,3.83
2023-08-10T17:08:42.879Z,4.32
2023-08-10T17:11:10.828Z,4.00
2023-08-10T17:13:39.060Z,3.97
2023-08-10T17:16:07.174Z,4.15
2023-08-10T17:18:35.317Z,7.63
2023-08-10T17:21:03.257Z,6.93
2023-08-10T17:23:31.181Z,5.93
2023-08-10T17:25:59.286Z,3.80
2023-08-10T17:28:30.601Z,3.88
2023-08-10T17:30:58.583Z,3.58
2023-08-10T17:33:31.758Z,3.80
2023-08-10T17:36:00.124Z,3.90
2023-08-10T17:38:28.133Z,3.90
2023-08-10T17:40:56.178Z,3.53
2023-08-10T17:43:24.745Z,4.20
2023-08-10T17:45:52.635Z,4.80
2023-08-10T17:48:20.469Z,8.63
2023-08-10T17:50:48.657Z,4.60
2023-08-10T17:53:16.584Z,4.70
2023-08-10T17:55:46.080Z,9.30
2023-08-10T17:58:14.005Z,4.72
2023-08-10T18:00:44.253Z,4.65
2023-08-10T18:03:18.245Z,4.50
2023-08-10T18:05:46.222Z,6.55
2023-08-10T18:08:14.200Z,5.10
2023-08-10T18:10:44.587Z,6.13
2023-08-10T18:13:12.377Z,5.18
2023-08-10T18:15:40.307Z,4.70
2023-08-10T18:18:08.559Z,5.10
2023-08-10T18:20:36.294Z,4.75
2023-08-10T18:23:07.181Z,6.35
2023-08-10T18:25:40.532Z,5.45
2023-08-10T18:28:08.256Z,4.97
2023-08-10T18:30:36.087Z,6.68
2023-08-10T18:33:03.979Z,5.68
2023-08-10T18:35:32.124Z,4.85
2023-08-10T18:38:00.077Z,16.38
2023-08-10T18:40:38.657Z,4.43
2023-08-10T18:43:09.141Z,6.45
2023-08-10T18:45:37.245Z,6.43
2023-08-10T18:48:06.015Z,11.70
2023-08-10T18:50:34.120Z,8.45
2023-08-10T18:53:02.044Z,10.03
2023-08-10T18:55:30.194Z,10.15
2023-08-10T18:57:58.167Z,10.13
2023-08-10T19:00:26.765Z,18.90
2023-08-10T19:02:55.158Z,10.30
2023-08-10T19:05:23.539Z,9.00
2023-08-10T19:07:51.562Z,6.53
2023-08-10T19:10:21.792Z,5.20
2023-08-10T19:12:49.828Z,4.30
2023-08-10T19:15:19.058Z,4.00
2023-08-10T19:17:47.795Z,4.80
2023-08-10T19:20:15.903Z,7.05
2023-08-10T19:22:44.344Z,9.13
2023-08-10T19:25:12.577Z,8.77
2023-08-10T19:27:40.501Z,11.18
2023-08-10T19:30:09.374Z,9.00
2023-08-10T19:32:37.505Z,7.55
2023-08-10T19:35:05.885Z,7.30
2023-08-10T19:37:33.728Z,5.13
2023-08-10T19:40:02.161Z,6.22
2023-08-10T19:42:32.234Z,3.63
2023-08-10T19:45:00.152Z,7.03
2023-08-10T19:47:31.602Z,4.00
2023-08-10T19:49:59.980Z,4.30
2023-08-10T19:52:29.710Z,2.90
2023-08-10T19:54:58.214Z,3.60
2023-08-10T19:57:26.262Z,2.85
2023-08-10T19:59:57.028Z,3.00
2023-08-10T20:02:25.741Z,3.50
2023-08-10T20:04:53.880Z,3.17
2023-08-10T20:07:22.021Z,3.83
2023-08-10T20:09:50.288Z,3.30
2023-08-10T20:12:18.160Z,4.45
2023-08-10T20:14:46.220Z,3.42
2023-08-10T20:17:17.417Z,3.83
2023-08-10T20:19:45.495Z,3.13
2023-08-10T20:22:16.520Z,2.67
2023-08-10T20:24:44.482Z,2.90
2023-08-10T20:27:14.248Z,2.75
2023-08-10T20:29:42.590Z,2.88
2023-08-10T20:32:17.548Z,3.50
2023-08-10T20:34:45.785Z,3.00
2023-08-10T20:37:14.368Z,4.50
2023-08-10T20:39:42.673Z,3.20
2023-08-10T20:42:14.288Z,3.70
2023-08-10T20:44:42.307Z,3.00
2023-08-10T20:47:09.950Z,3.00
2023-08-10T20:49:37.705Z,3.58
2023-08-10T20:52:06.536Z,4.28
2023-08-10T20:54:34.692Z,6.55
2023-08-10T20:57:03.050Z,7.50
2023-08-10T20:59:35.212Z,7.47
2023-08-10T21:02:04.200Z,7.63
2023-08-10T21:04:32.256Z,7.10
2023-08-10T21:07:00.095Z,12.43
2023-08-10T21:09:27.872Z,13.50
2023-08-10T21:11:57.166Z,15.13
2023-08-10T21:14:24.834Z,18.48
2023-08-10T21:16:52.593Z,18.35
2023-08-10T21:19:20.297Z,19.15
2023-08-10T21:21:50.281Z,18.67
2023-08-10T21:24:17.977Z,17.48
2023-08-10T21:26:45.757Z,15.35
2023-08-10T21:29:13.451Z,17.27
2023-08-10T21:31:41.157Z,17.80
2023-08-10T21:34:09.020Z,18.13
2023-08-10T21:36:36.862Z,16.10
2023-08-10T21:39:05.020Z,17.67
2023-08-10T21:41:32.891Z,16.02
2023-08-10T21:44:00.567Z,15.65
2023-08-10T21:46:28.483Z,13.70
2023-08-10T21:48:56.401Z,14.00
2023-08-10T21:51:24.161Z,13.57
2023-08-10T21:53:52.466Z,13.85
2023-08-10T21:56:20.200Z,11.95
2023-08-10T21:58:48.181Z,13.53
2023-08-10T22:01:15.981Z,14.27
2023-08-10T22:03:44.711Z,17.00
2023-08-10T22:06:12.555Z,15.40
2023-08-10T22:08:40.442Z,13.80
2023-08-10T22:11:08.291Z,14.10
2023-08-10T22:13:36.215Z,14.45
2023-08-10T22:16:04.760Z,13.20
2023-08-10T22:18:35.886Z,12.82
2023-08-10T22:21:03.976Z,15.43
2023-08-10T22:23:31.879Z,17.33
2023-08-10T22:26:00.452Z,16.33
2023-08-10T22:28:28.235Z,16.17
2023-08-10T22:30:56.204Z,14.98
2023-08-10T22:33:24.120Z,15.25
2023-08-10T22:35:51.992Z,12.80
2023-08-10T22:38:20.039Z,9.82
2023-08-10T22:40:47.848Z,8.63
2023-08-10T22:43:15.678Z,8.38
2023-08-10T22:45:43.908Z,9.18
2023-08-10T22:48:11.739Z,10.63
2023-08-10T22:50:40.472Z,12.85
2023-08-10T22:53:08.294Z,14.15
2023-08-10T22:55:36.126Z,14.38
2023-08-10T22:58:03.895Z,16.73
2023-08-10T23:00:31.669Z,17.37
2023-08-10T23:02:59.454Z,18.20
2023-08-10T23:05:27.225Z,19.67
2023-08-10T23:07:54.942Z,18.58
2023-08-10T23:10:22.687Z,17.63
2023-08-10T23:12:50.557Z,20.60
2023-08-10T23:15:19.196Z,22.23
2023-08-10T23:17:47.199Z,24.00
2023-08-10T23:20:15.126Z,25.02
2023-08-10T23:22:44.252Z,23.33
2023-08-10T23:25:15.240Z,20.67
2023-08-10T23:27:43.259Z,17.88
2023-08-10T23:30:12.599Z,17.77
2023-08-10T23:32:40.481Z,15.98
2023-08-10T23:35:08.757Z,13.20
2023-08-10T23:37:39.832Z,12.63
2023-08-10T23:40:12.717Z,13.43
2023-08-10T23:42:43.902Z,15.40
2023-08-10T23:45:13.379Z,12.32
2023-08-10T23:47:42.822Z,14.63
2023-08-10T23:50:13.119Z,18.60
2023-08-10T23:52:40.874Z,26.42
2023-08-10T23:55:09.954Z,26.55
2023-08-10T23:57:38.180Z,22.27
